createdAt,value
2023-09-06T00:01:15.997Z,99.90
2023-09-06T00:06:28.524Z,99.90
2023-09-06T00:08:58.967Z,99.90
2023-09-06T00:11:29.934Z,99.90
2023-09-06T00:14:01.707Z,99.90
2023-09-06T00:16:33.337Z,99.90
2023-09-06T00:19:04.485Z,99.90
2023-09-06T00:21:36.493Z,99.90
2023-09-06T00:26:51.008Z,99.90
2023-09-06T00:29:22.442Z,99.90
2023-09-06T00:31:53.173Z,99.90
2023-09-06T00:34:23.952Z,99.90
2023-09-06T00:36:56.672Z,99.90
2023-09-06T00:42:07.729Z,99.90
2023-09-06T00:44:38.142Z,99.90
2023-09-06T00:47:09.466Z,99.90
2023-09-06T00:49:39.886Z,99.90
2023-09-06T00:52:12.031Z,99.90
2023-09-06T00:57:23.240Z,99.90
2023-09-06T00:59:56.499Z,99.90
2023-09-06T01:02:27.619Z,99.90
2023-09-06T01:04:58.289Z,99.90
2023-09-06T01:07:31.640Z,99.90
2023-09-06T01:10:02.072Z,99.90
2023-09-06T01:12:32.678Z,99.90
2023-09-06T01:17:51.907Z,99.90
2023-09-06T01:23:11.313Z,99.90
2023-09-06T01:25:42.215Z,99.90
2023-09-06T01:30:55.144Z,99.90
2023-09-06T01:33:25.928Z,99.90
2023-09-06T01:35:56.815Z,99.90
2023-09-06T01:38:28.058Z,99.90
2023-09-06T01:40:58.786Z,99.90
2023-09-06T01:43:30.115Z,99.90
2023-09-06T01:46:00.772Z,99.90
2023-09-06T01:48:32.314Z,99.90
2023-09-06T01:51:05.308Z,99.90
2023-09-06T01:53:35.710Z,99.90
2023-09-06T01:56:08.256Z,99.90
2023-09-06T02:01:20.429Z,99.90
2023-09-06T02:03:51.090Z,99.90
2023-09-06T02:06:22.801Z,99.90
2023-09-06T02:08:54.193Z,99.90
2023-09-06T02:11:24.744Z,99.90
2023-09-06T02:16:35.730Z,99.90
2023-09-06T02:19:07.996Z,99.90
2023-09-06T02:21:39.765Z,99.90
2023-09-06T02:26:51.094Z,99.90
2023-09-06T02:32:02.050Z,99.90
2023-09-06T02:34:32.593Z,99.90
2023-09-06T02:37:03.074Z,99.90
2023-09-06T02:39:34.525Z,99.90
2023-09-06T02:42:05.666Z,99.90
2023-09-06T02:44:36.092Z,99.90
2023-09-06T02:47:08.145Z,99.90
2023-09-06T02:49:40.436Z,99.90
2023-09-06T02:52:14.159Z,99.90
2023-09-06T02:57:24.979Z,99.90
2023-09-06T02:59:55.892Z,99.90
2023-09-06T03:02:26.615Z,99.90
2023-09-06T03:04:58.712Z,99.90
2023-09-06T03:07:29.112Z,99.90
2023-09-06T03:09:59.989Z,99.90
2023-09-06T03:12:30.428Z,99.90
2023-09-06T03:15:01.165Z,99.90
2023-09-06T03:17:31.577Z,99.90
2023-09-06T03:20:02.000Z,99.90
2023-09-06T03:22:34.014Z,99.90
2023-09-06T03:25:04.533Z,99.90
2023-09-06T03:27:34.873Z,99.90
2023-09-06T03:30:08.297Z,99.90
2023-09-06T03:32:40.652Z,99.90
2023-09-06T03:35:11.730Z,99.90
2023-09-06T03:37:42.785Z,99.90
2023-09-06T03:40:22.615Z,99.90
2023-09-06T03:42:53.013Z,99.90
2023-09-06T03:45:25.788Z,99.90
2023-09-06T03:47:56.720Z,99.90
2023-09-06T03:50:27.712Z,99.90
2023-09-06T03:52:58.719Z,99.90
2023-09-06T03:55:29.441Z,99.90
2023-09-06T03:58:00.169Z,99.90
2023-09-06T04:00:32.719Z,99.90
2023-09-06T04:03:04.904Z,99.90
2023-09-06T04:05:36.095Z,99.90
2023-09-06T04:08:08.441Z,99.90
2023-09-06T04:10:40.251Z,99.90
2023-09-06T04:13:12.320Z,99.90
2023-09-06T04:15:45.183Z,99.90
2023-09-06T04:18:17.071Z,99.90
2023-09-06T04:20:48.091Z,99.90
2023-09-06T04:23:20.436Z,99.90
2023-09-06T04:25:51.074Z,99.90
2023-09-06T04:28:22.175Z,99.90
2023-09-06T04:30:52.996Z,99.90
2023-09-06T04:36:05.487Z,99.90
2023-09-06T04:38:36.143Z,99.90
2023-09-06T04:41:06.820Z,99.90
2023-09-06T04:43:37.925Z,99.90
2023-09-06T04:46:08.569Z,99.90
2023-09-06T04:48:40.394Z,99.90
2023-09-06T04:51:11.020Z,99.90
2023-09-06T04:53:41.390Z,99.90
2023-09-06T04:56:11.788Z,99.90
2023-09-06T04:58:42.148Z,99.90
2023-09-06T05:01:13.086Z,99.90
2023-09-06T05:03:43.742Z,99.90
2023-09-06T05:06:15.007Z,99.90
2023-09-06T05:08:45.433Z,99.90
2023-09-06T05:11:18.468Z,99.90
2023-09-06T05:13:49.564Z,99.90
2023-09-06T05:16:20.266Z,99.90
2023-09-06T05:18:51.986Z,99.90
2023-09-06T05:21:22.509Z,99.90
2023-09-06T05:23:54.168Z,99.90
2023-09-06T05:26:24.625Z,99.90
2023-09-06T05:28:55.442Z,99.90
2023-09-06T05:31:25.969Z,99.90
2023-09-06T05:33:56.564Z,99.90
2023-09-06T05:36:27.137Z,99.90
2023-09-06T05:38:57.561Z,99.90
2023-09-06T05:41:27.923Z,99.90
2023-09-06T05:43:58.434Z,99.90
2023-09-06T05:46:33.784Z,99.90
2023-09-06T05:49:00.859Z,99.90
2023-09-06T05:51:31.221Z,99.90
2023-09-06T05:54:01.866Z,99.90
2023-09-06T05:56:32.499Z,99.90
2023-09-06T05:59:04.072Z,99.90
2023-09-06T06:01:34.671Z,99.90
2023-09-06T06:04:05.562Z,99.90
2023-09-06T06:06:36.874Z,99.90
2023-09-06T06:09:09.481Z,99.90
2023-09-06T06:11:39.876Z,99.90
2023-09-06T06:14:11.660Z,99.90
2023-09-06T06:16:46.459Z,99.90
2023-09-06T06:19:15.331Z,99.90
2023-09-06T06:21:45.831Z,99.90
2023-09-06T06:24:16.916Z,99.90
2023-09-06T06:26:47.310Z,99.90
2023-09-06T06:29:17.818Z,99.90
2023-09-06T06:31:49.278Z,99.90
2023-09-06T06:34:20.383Z,99.90
2023-09-06T06:36:52.205Z,99.90
2023-09-06T06:39:22.783Z,99.90
2023-09-06T06:41:53.269Z,99.90
2023-09-06T06:44:24.075Z,99.90
2023-09-06T06:46:54.643Z,99.90
2023-09-06T06:49:25.098Z,99.90
2023-09-06T06:51:55.532Z,99.90
2023-09-06T06:54:26.604Z,99.90
2023-09-06T06:56:57.069Z,99.90
2023-09-06T06:59:29.311Z,99.90
2023-09-06T07:01:59.985Z,99.90
2023-09-06T07:04:30.536Z,99.90
2023-09-06T07:07:01.034Z,99.90
2023-09-06T07:09:31.592Z,99.90
2023-09-06T07:12:02.565Z,99.90
2023-09-06T07:14:33.427Z,99.90
2023-09-06T07:17:03.956Z,99.90
2023-09-06T07:19:35.272Z,99.90
2023-09-06T07:22:06.118Z,99.90
2023-09-06T07:24:36.912Z,99.90
2023-09-06T07:27:07.676Z,99.90
2023-09-06T07:29:38.291Z,99.90
2023-09-06T07:32:09.709Z,99.90
2023-09-06T07:34:40.760Z,99.90
2023-09-06T07:37:11.281Z,99.90
2023-09-06T07:39:41.660Z,99.90
2023-09-06T07:42:12.307Z,99.90
2023-09-06T07:44:42.761Z,99.90
2023-09-06T07:47:13.359Z,99.90
2023-09-06T07:49:44.108Z,99.90
2023-09-06T07:52:15.088Z,99.90
2023-09-06T07:54:45.521Z,99.90
2023-09-06T07:57:15.912Z,99.90
2023-09-06T07:59:46.352Z,99.90
2023-09-06T08:02:17.093Z,99.90
2023-09-06T08:04:48.597Z,99.90
2023-09-06T08:07:19.395Z,99.90
2023-09-06T08:09:50.501Z,99.90
2023-09-06T08:12:20.995Z,99.90
2023-09-06T08:17:32.095Z,99.90
2023-09-06T08:20:03.312Z,99.90
2023-09-06T08:22:44.472Z,99.90
2023-09-06T08:25:08.308Z,99.90
2023-09-06T08:27:38.791Z,99.90
2023-09-06T08:30:12.616Z,99.90
2023-09-06T08:35:24.837Z,99.90
2023-09-06T08:37:55.334Z,99.90
2023-09-06T08:40:26.015Z,99.90
2023-09-06T08:42:57.957Z,99.90
2023-09-06T08:45:28.950Z,99.90
2023-09-06T08:48:00.397Z,99.90
2023-09-06T08:50:33.326Z,99.90
2023-09-06T08:53:05.065Z,99.90
2023-09-06T08:55:36.200Z,99.90
2023-09-06T08:58:07.502Z,99.90
2023-09-06T09:00:40.959Z,99.90
2023-09-06T09:03:12.772Z,99.90
2023-09-06T09:05:43.405Z,99.90
2023-09-06T09:08:13.850Z,99.90
2023-09-06T09:10:44.256Z,99.90
2023-09-06T09:15:55.579Z,99.90
2023-09-06T09:18:26.144Z,99.90
2023-09-06T09:20:58.083Z,99.90
2023-09-06T09:26:01.358Z,99.90
2023-09-06T09:28:35.414Z,99.90
2023-09-06T09:31:06.715Z,99.90
2023-09-06T09:33:37.625Z,99.90
2023-09-06T09:36:10.451Z,99.90
2023-09-06T09:38:46.296Z,99.90
2023-09-06T09:41:17.880Z,99.90
2023-09-06T09:43:49.272Z,99.90
2023-09-06T09:46:30.355Z,99.90
2023-09-06T09:49:04.717Z,99.90
2023-09-06T09:51:36.770Z,99.90
2023-09-06T09:54:08.645Z,99.90
2023-09-06T09:56:42.634Z,99.90
2023-09-06T09:59:14.568Z,99.90
2023-09-06T10:01:46.301Z,99.90
2023-09-06T10:04:17.783Z,99.90
2023-09-06T10:06:49.940Z,99.90
2023-09-06T10:09:22.372Z,99.90
2023-09-06T10:11:55.317Z,99.90
2023-09-06T10:14:27.145Z,99.90
2023-09-06T10:16:58.551Z,99.90
2023-09-06T10:19:40.800Z,99.90
2023-09-06T10:22:04.810Z,99.90
2023-09-06T10:24:36.636Z,99.90
2023-09-06T10:27:13.735Z,99.90
2023-09-06T10:30:03.919Z,99.90
2023-09-06T10:35:25.684Z,99.90
2023-09-06T10:38:07.908Z,99.90
2023-09-06T10:41:11.992Z,99.90
2023-09-06T10:44:06.385Z,99.90
2023-09-06T10:46:37.776Z,99.90
2023-09-06T10:49:24.648Z,99.90
2023-09-06T10:52:05.358Z,99.90
2023-09-06T10:54:39.451Z,99.90
2023-09-06T10:57:11.546Z,99.90
2023-09-06T10:59:45.122Z,99.90
2023-09-06T11:02:28.864Z,99.90
2023-09-06T11:05:29.191Z,99.90
2023-09-06T11:08:00.361Z,99.90
2023-09-06T11:10:31.519Z,99.90
2023-09-06T11:13:11.428Z,99.90
2023-09-06T11:15:43.092Z,99.90
2023-09-06T11:18:15.561Z,99.90
2023-09-06T11:20:50.857Z,99.90
2023-09-06T11:23:21.301Z,99.90
2023-09-06T11:25:59.613Z,99.90
2023-09-06T11:28:32.359Z,99.90
2023-09-06T11:33:43.817Z,99.90
2023-09-06T11:36:14.672Z,99.90
2023-09-06T11:38:46.458Z,99.90
2023-09-06T11:41:17.851Z,99.90
2023-09-06T11:43:49.908Z,99.90
2023-09-06T11:46:22.052Z,99.90
2023-09-06T11:48:54.472Z,99.90
2023-09-06T11:51:26.703Z,99.90
2023-09-06T11:53:59.316Z,99.90
2023-09-06T11:56:33.176Z,99.90
2023-09-06T11:59:08.704Z,99.90
2023-09-06T12:01:42.465Z,99.90
2023-09-06T12:04:17.225Z,99.90
2023-09-06T12:06:49.276Z,99.90
2023-09-06T12:09:21.394Z,99.90
2023-09-06T12:11:52.384Z,99.90
2023-09-06T12:14:22.919Z,99.90
2023-09-06T12:16:53.493Z,99.90
2023-09-06T12:19:23.948Z,99.90
2023-09-06T12:21:54.361Z,99.90
2023-09-06T12:24:25.550Z,99.90
2023-09-06T12:26:56.021Z,99.90
2023-09-06T12:29:26.572Z,99.90
2023-09-06T12:31:58.617Z,99.90
2023-09-06T12:34:29.052Z,99.90
2023-09-06T12:36:59.642Z,99.90
2023-09-06T12:39:29.989Z,99.90
2023-09-06T12:42:00.455Z,99.90
2023-09-06T12:44:30.894Z,99.90
2023-09-06T12:47:03.203Z,99.90
2023-09-06T12:49:33.620Z,99.90
2023-09-06T12:52:05.019Z,99.90
2023-09-06T12:54:35.573Z,99.90
2023-09-06T12:57:06.655Z,99.90
2023-09-06T12:59:37.759Z,99.90
2023-09-06T13:02:08.578Z,99.90
2023-09-06T13:04:39.122Z,99.90
2023-09-06T13:07:10.133Z,99.90
2023-09-06T13:09:40.613Z,99.90
2023-09-06T13:12:12.138Z,99.90
2023-09-06T13:14:42.703Z,99.90
2023-09-06T13:17:13.212Z,99.90
2023-09-06T13:19:45.643Z,99.90
2023-09-06T13:22:17.678Z,99.90
2023-09-06T13:24:50.084Z,99.90
2023-09-06T13:27:21.277Z,99.90
2023-09-06T13:29:53.284Z,99.90
2023-09-06T13:32:25.394Z,99.90
2023-09-06T13:34:56.632Z,99.90
2023-09-06T13:37:28.037Z,99.90
2023-09-06T13:39:59.163Z,99.90
2023-09-06T13:42:30.149Z,99.90
2023-09-06T13:45:00.604Z,99.90
2023-09-06T13:47:31.684Z,99.90
2023-09-06T13:50:02.237Z,99.60
2023-09-06T13:52:32.696Z,99.90
2023-09-06T13:55:05.192Z,99.40
2023-09-06T13:57:36.699Z,99.90
2023-09-06T14:00:11.824Z,99.90
2023-09-06T14:02:42.934Z,99.60
2023-09-06T14:05:13.946Z,99.90
2023-09-06T14:07:44.517Z,99.90
2023-09-06T14:10:14.911Z,99.70
2023-09-06T14:12:46.441Z,99.50
2023-09-06T14:15:17.128Z,99.70
2023-09-06T14:17:48.721Z,99.90
2023-09-06T14:20:20.163Z,99.40
2023-09-06T14:22:51.177Z,99.90
2023-09-06T14:25:22.026Z,99.80
2023-09-06T14:27:52.459Z,99.80
2023-09-06T14:30:22.862Z,99.30
2023-09-06T14:32:53.361Z,98.60
2023-09-06T14:35:23.942Z,99.30
2023-09-06T14:37:56.630Z,97.20
2023-09-06T14:40:27.937Z,99.50
2023-09-06T14:42:58.447Z,99.50
2023-09-06T14:45:28.897Z,99.40
2023-09-06T14:47:59.400Z,98.90
2023-09-06T14:50:30.040Z,98.20
2023-09-06T14:53:00.502Z,99.20
2023-09-06T14:55:32.294Z,98.40
2023-09-06T15:00:44.498Z,98.90
2023-09-06T15:03:15.743Z,98.60
2023-09-06T15:05:46.309Z,98.40
2023-09-06T15:08:16.680Z,98.80
2023-09-06T15:10:47.087Z,98.20
2023-09-06T15:13:17.423Z,99.10
2023-09-06T15:15:49.472Z,99.50
2023-09-06T15:18:19.900Z,98.60
2023-09-06T15:20:50.738Z,99.40
2023-09-06T15:26:00.970Z,98.30
2023-09-06T15:28:31.768Z,98.30
2023-09-06T15:31:02.811Z,99.30
2023-09-06T15:33:34.811Z,98.20
2023-09-06T15:36:12.336Z,98.60
2023-09-06T15:38:43.142Z,99.90
2023-09-06T15:41:15.079Z,99.90
2023-09-06T15:43:45.958Z,99.90
2023-09-06T15:46:16.666Z,99.90
2023-09-06T15:48:47.134Z,99.90
2023-09-06T15:51:18.609Z,99.90
2023-09-06T15:53:49.156Z,99.90
2023-09-06T15:56:21.157Z,99.90
2023-09-06T15:58:51.840Z,99.90
2023-09-06T16:01:22.398Z,99.90
2023-09-06T16:03:52.958Z,99.90
2023-09-06T16:06:26.105Z,99.90
2023-09-06T16:08:56.538Z,99.90
2023-09-06T16:11:27.159Z,99.90
2023-09-06T16:13:58.115Z,99.90
2023-09-06T16:16:29.547Z,99.90
2023-09-06T16:19:00.079Z,99.90
2023-09-06T16:21:33.806Z,99.90
2023-09-06T16:24:05.121Z,99.90
2023-09-06T16:26:35.645Z,99.90
2023-09-06T16:29:09.432Z,99.90
2023-09-06T16:31:40.172Z,99.90
2023-09-06T16:34:10.646Z,99.90
2023-09-06T16:36:41.160Z,99.90
2023-09-06T16:39:11.648Z,99.90
2023-09-06T16:41:42.047Z,99.90
2023-09-06T16:44:13.279Z,99.90
2023-09-06T16:46:43.679Z,99.90
2023-09-06T16:49:14.244Z,99.90
2023-09-06T16:51:44.827Z,99.90
2023-09-06T16:54:15.339Z,99.90
2023-09-06T16:56:45.789Z,99.90
2023-09-06T16:59:16.967Z,99.90
2023-09-06T17:01:48.812Z,99.90
2023-09-06T17:04:21.564Z,99.90
2023-09-06T17:06:52.043Z,99.90
2023-09-06T17:09:22.631Z,99.90
2023-09-06T17:11:53.044Z,99.90
2023-09-06T17:14:25.017Z,99.90
2023-09-06T17:16:55.488Z,99.90
2023-09-06T17:19:26.826Z,99.90
2023-09-06T17:21:57.324Z,99.90
2023-09-06T17:24:27.783Z,99.90
2023-09-06T17:26:58.243Z,99.90
2023-09-06T17:29:30.204Z,99.90
2023-09-06T17:32:02.391Z,99.90
2023-09-06T17:34:34.046Z,99.90
2023-09-06T17:37:05.643Z,99.90
2023-09-06T17:39:36.124Z,99.90
2023-09-06T17:42:08.004Z,99.90
2023-09-06T17:44:38.823Z,99.90
2023-09-06T17:47:09.227Z,99.90
2023-09-06T17:49:39.681Z,99.90
2023-09-06T17:52:11.912Z,99.90
2023-09-06T17:54:42.346Z,99.90
2023-09-06T17:57:14.419Z,99.90
2023-09-06T17:59:44.823Z,99.90
2023-09-06T18:02:15.945Z,99.90
2023-09-06T18:04:46.982Z,99.90
2023-09-06T18:07:18.164Z,99.90
2023-09-06T18:09:49.327Z,99.90
2023-09-06T18:12:21.801Z,99.90
2023-09-06T18:14:52.197Z,99.90
2023-09-06T18:17:24.956Z,99.90
2023-09-06T18:19:55.510Z,99.90
2023-09-06T18:22:26.542Z,99.90
2023-09-06T18:24:57.554Z,99.90
2023-09-06T18:27:28.097Z,99.90
2023-09-06T18:32:41.098Z,99.90
2023-09-06T18:35:16.179Z,99.90
2023-09-06T18:37:47.848Z,99.90
2023-09-06T18:40:20.361Z,99.90
2023-09-06T18:42:52.153Z,99.90
2023-09-06T18:45:23.585Z,99.90
2023-09-06T18:50:33.283Z,99.90
2023-09-06T18:53:06.091Z,99.90
2023-09-06T18:55:37.444Z,99.90
2023-09-06T18:58:08.575Z,99.90
2023-09-06T19:00:40.034Z,99.90
2023-09-06T19:03:14.617Z,99.90
2023-09-06T19:05:47.024Z,99.90
2023-09-06T19:08:18.062Z,99.90
2023-09-06T19:10:48.798Z,99.90
2023-09-06T19:13:19.540Z,99.90
2023-09-06T19:15:50.291Z,99.90
2023-09-06T19:18:21.493Z,99.90
2023-09-06T19:20:52.093Z,99.90
2023-09-06T19:23:22.855Z,99.90
2023-09-06T19:25:57.629Z,99.90
2023-09-06T19:31:09.202Z,99.90
2023-09-06T19:33:40.345Z,99.90
2023-09-06T19:36:11.556Z,99.90
2023-09-06T19:38:42.332Z,99.90
2023-09-06T19:41:13.138Z,99.90
2023-09-06T19:43:44.333Z,99.90
2023-09-06T19:46:15.099Z,99.90
2023-09-06T19:48:59.629Z,99.90
2023-09-06T19:51:19.029Z,99.90
2023-09-06T19:53:49.895Z,99.90
2023-09-06T19:56:22.416Z,99.90
2023-09-06T19:58:54.092Z,99.90
2023-09-06T20:01:24.889Z,99.90
2023-09-06T20:03:56.126Z,99.90
2023-09-06T20:06:26.664Z,99.90
2023-09-06T20:08:59.096Z,99.90
2023-09-06T20:11:30.138Z,99.90
2023-09-06T20:14:01.391Z,99.90
2023-09-06T20:16:32.084Z,99.90
2023-09-06T20:19:02.885Z,99.90
2023-09-06T20:21:33.693Z,99.90
2023-09-06T20:24:04.571Z,99.90
2023-09-06T20:26:35.057Z,99.90
2023-09-06T20:29:07.106Z,99.90
2023-09-06T20:31:37.689Z,99.90
2023-09-06T20:34:08.461Z,99.90
2023-09-06T20:36:38.927Z,99.90
2023-09-06T20:39:11.694Z,99.90
2023-09-06T20:41:42.364Z,99.90
2023-09-06T20:46:52.011Z,99.90
2023-09-06T20:49:22.615Z,99.90
2023-09-06T20:51:52.946Z,99.90
2023-09-06T20:54:23.492Z,99.90
2023-09-06T20:56:53.903Z,99.90
2023-09-06T20:59:24.309Z,99.90
2023-09-06T21:01:54.810Z,99.90
2023-09-06T21:04:25.353Z,99.90
2023-09-06T21:06:56.628Z,99.90
2023-09-06T21:09:26.955Z,99.90
2023-09-06T21:11:57.355Z,99.90
2023-09-06T21:14:27.822Z,99.90
2023-09-06T21:16:58.193Z,99.90
2023-09-06T21:19:30.593Z,99.90
2023-09-06T21:22:00.984Z,99.90
2023-09-06T21:24:31.393Z,99.90
2023-09-06T21:27:02.020Z,99.90
2023-09-06T21:32:12.242Z,99.90
2023-09-06T21:34:42.649Z,99.90
2023-09-06T21:37:13.125Z,99.90
2023-09-06T21:39:43.525Z,99.90
2023-09-06T21:42:13.985Z,99.90
2023-09-06T21:44:44.599Z,99.90
2023-09-06T21:47:15.022Z,99.90
2023-09-06T21:49:45.424Z,99.90
2023-09-06T21:52:15.774Z,99.90
2023-09-06T21:54:46.273Z,99.90
2023-09-06T21:57:16.680Z,99.90
2023-09-06T21:59:47.688Z,99.90
2023-09-06T22:02:18.073Z,99.90
2023-09-06T22:04:48.571Z,99.90
2023-09-06T22:07:19.302Z,99.90
2023-09-06T22:09:50.167Z,99.90
2023-09-06T22:12:20.628Z,99.90
2023-09-06T22:14:51.020Z,99.90
2023-09-06T22:17:21.756Z,99.90
2023-09-06T22:19:52.483Z,99.90
2023-09-06T22:22:22.961Z,99.90
2023-09-06T22:24:53.460Z,99.90
2023-09-06T22:27:23.810Z,99.90
2023-09-06T22:29:54.219Z,99.90
2023-09-06T22:32:24.605Z,99.90
2023-09-06T22:34:57.406Z,99.90
2023-09-06T22:37:29.310Z,99.90
2023-09-06T22:39:59.690Z,99.90
2023-09-06T22:42:30.179Z,99.90
2023-09-06T22:45:00.564Z,99.90
2023-09-06T22:47:31.324Z,99.90
2023-09-06T22:50:01.992Z,99.90
2023-09-06T22:52:32.503Z,99.90
2023-09-06T22:55:03.061Z,99.90
2023-09-06T22:57:33.519Z,99.90
2023-09-06T23:00:06.046Z,99.90
2023-09-06T23:02:36.588Z,99.90
2023-09-06T23:07:46.348Z,99.90
2023-09-06T23:12:55.805Z,99.90
2023-09-06T23:15:27.754Z,99.90
2023-09-06T23:20:38.900Z,99.90
2023-09-06T23:25:50.301Z,99.90
2023-09-06T23:31:01.874Z,99.90
2023-09-06T23:33:35.082Z,99.90
2023-09-06T23:36:06.122Z,99.90
2023-09-06T23:38:36.477Z,99.90
2023-09-06T23:41:08.397Z,99.90
2023-09-06T23:43:38.860Z,99.90
2023-09-06T23:46:09.440Z,99.90
2023-09-06T23:48:39.977Z,99.90
2023-09-06T23:51:10.350Z,99.90
2023-09-06T23:56:20.913Z,99.90
